createdAt,value
2023-04-27T05:31:49.663Z,99.90
2023-04-27T05:34:51.436Z,99.90
2023-04-27T05:37:53.531Z,99.90
2023-04-27T05:40:56.694Z,99.90
2023-04-27T05:43:58.645Z,99.90
2023-04-27T05:47:00.384Z,99.90
2023-04-27T05:50:02.101Z,99.90
2023-04-27T05:53:05.629Z,99.90
2023-04-27T05:56:08.138Z,99.90
2023-04-27T05:59:10.213Z,99.90
2023-04-27T06:02:13.840Z,99.90
2023-04-27T06:05:16.166Z,99.90
2023-04-27T06:08:18.056Z,99.90
2023-04-27T06:11:19.883Z,99.90
2023-04-27T06:48:53.291Z,99.90
2023-04-27T06:51:55.569Z,99.90
2023-04-27T06:54:57.545Z,99.90
2023-04-27T06:57:59.326Z,99.90
2023-04-27T07:01:01.683Z,99.90
2023-04-27T07:04:04.490Z,99.90
2023-04-27T07:07:06.722Z,99.90
2023-04-27T07:10:09.199Z,99.90
2023-04-27T07:13:12.486Z,99.90
2023-04-27T07:16:16.346Z,99.90
2023-04-27T07:19:18.446Z,99.90
2023-04-27T07:22:20.224Z,99.90
2023-04-27T07:25:23.607Z,99.90
2023-04-27T07:28:25.649Z,99.90
2023-04-27T07:31:28.059Z,99.90
2023-04-27T07:34:41.052Z,99.90
2023-04-27T07:37:47.322Z,99.90
2023-04-27T07:40:49.755Z,99.90
2023-04-27T07:43:52.460Z,99.90
2023-04-27T07:46:54.768Z,99.90
2023-04-27T07:49:56.670Z,99.90
2023-04-27T07:52:58.914Z,99.90
2023-04-27T07:56:01.171Z,98.90
2023-04-27T07:59:04.215Z,97.40
2023-04-27T08:02:17.850Z,93.10
2023-04-27T08:05:21.957Z,92.00
2023-04-27T08:08:24.562Z,87.60
2023-04-27T08:11:27.572Z,80.30
2023-04-27T08:14:30.192Z,81.00
2023-04-27T08:17:32.094Z,85.40
2023-04-27T08:20:33.884Z,85.50
2023-04-27T08:23:37.288Z,87.30
2023-04-27T08:26:40.941Z,75.30
2023-04-27T08:29:49.482Z,79.10
2023-04-27T08:32:51.410Z,74.10
2023-04-27T08:35:56.380Z,69.90
2023-04-27T08:38:58.248Z,70.70
2023-04-27T08:42:00.569Z,73.60
2023-04-27T08:45:02.820Z,71.60
2023-04-27T08:48:05.071Z,73.70
2023-04-27T08:51:11.155Z,73.40
2023-04-27T08:54:13.151Z,70.50
2023-04-27T08:57:16.623Z,74.60
2023-04-27T09:00:19.278Z,71.20
2023-04-27T09:03:26.189Z,74.90
2023-04-27T09:06:33.346Z,73.80
2023-04-27T09:09:35.841Z,66.90
2023-04-27T09:12:37.794Z,68.30
2023-04-27T09:15:58.051Z,72.70
2023-04-27T09:19:00.265Z,68.60
2023-04-27T09:22:06.757Z,70.60
2023-04-27T09:25:08.867Z,68.00
2023-04-27T09:28:14.394Z,74.00
2023-04-27T09:31:16.974Z,78.90
2023-04-27T09:34:18.798Z,75.60
2023-04-27T09:37:21.112Z,74.70
2023-04-27T09:40:28.239Z,72.50
2023-04-27T09:43:31.466Z,75.70
2023-04-27T09:46:34.254Z,77.40
2023-04-27T09:49:36.490Z,73.60
2023-04-27T09:52:39.403Z,75.70
2023-04-27T09:55:54.631Z,70.80
2023-04-27T09:59:27.348Z,72.70
2023-04-27T10:02:46.188Z,75.70
2023-04-27T10:06:32.433Z,80.20
2023-04-27T10:09:48.208Z,71.70
2023-04-27T10:13:25.922Z,74.30
2023-04-27T10:16:27.917Z,70.60
2023-04-27T10:19:30.312Z,67.00
2023-04-27T10:22:47.089Z,73.50
2023-04-27T10:25:48.923Z,66.70
2023-04-27T10:29:08.433Z,69.00
2023-04-27T10:32:26.687Z,77.20
2023-04-27T10:35:40.101Z,77.10
2023-04-27T10:38:42.076Z,81.70
2023-04-27T10:41:54.780Z,74.10
2023-04-27T10:44:57.977Z,80.70
2023-04-27T10:48:01.588Z,73.50
2023-04-27T10:51:04.173Z,80.80
2023-04-27T10:54:06.127Z,80.60
2023-04-27T10:57:09.544Z,77.00
2023-04-27T11:00:16.232Z,81.10
2023-04-27T11:03:24.228Z,78.90
2023-04-27T11:06:28.235Z,78.10
2023-04-27T11:09:30.425Z,79.50
2023-04-27T11:12:32.299Z,80.40
2023-04-27T11:15:43.660Z,82.60
2023-04-27T11:18:45.442Z,83.20
2023-04-27T11:21:47.140Z,84.00
2023-04-27T11:24:50.334Z,89.30
2023-04-27T11:27:51.993Z,88.70
2023-04-27T11:30:59.222Z,89.20
2023-04-27T11:34:01.049Z,84.70
2023-04-27T11:40:13.996Z,86.20
2023-04-27T11:43:17.368Z,81.40
2023-04-27T11:46:22.348Z,84.30
2023-04-27T11:49:26.036Z,79.50
2023-04-27T11:52:35.588Z,85.30
2023-04-27T11:55:37.564Z,88.70
2023-04-27T11:58:39.996Z,87.50
2023-04-27T12:01:41.777Z,90.30
2023-04-27T12:04:43.874Z,89.80
2023-04-27T12:07:46.160Z,92.90
2023-04-27T12:10:48.011Z,91.00
2023-04-27T12:13:49.769Z,92.20
2023-04-27T12:16:51.959Z,87.90
2023-04-27T12:19:54.097Z,90.20
2023-04-27T12:22:57.522Z,91.40
2023-04-27T12:25:59.240Z,91.20
2023-04-27T12:29:02.637Z,88.50
2023-04-27T12:32:04.683Z,88.90
2023-04-27T12:35:07.651Z,87.90
2023-04-27T12:38:09.699Z,89.60
2023-04-27T12:41:11.518Z,90.00
2023-04-27T12:44:14.455Z,90.50
2023-04-27T12:47:32.640Z,91.10
2023-04-27T12:50:39.125Z,90.20
2023-04-27T12:53:41.186Z,90.00
2023-04-27T12:56:43.027Z,89.70
2023-04-27T12:59:45.020Z,91.80
2023-04-27T13:02:46.925Z,91.10
2023-04-27T13:05:48.617Z,91.70
2023-04-27T13:08:51.021Z,92.10
2023-04-27T13:11:54.115Z,95.50
2023-04-27T13:14:56.299Z,95.00
2023-04-27T13:17:59.038Z,92.60
2023-04-27T13:21:01.337Z,92.10
2023-04-27T13:24:03.300Z,90.40
2023-04-27T13:27:07.938Z,91.00
2023-04-27T13:30:10.379Z,92.90
2023-04-27T13:33:23.064Z,91.10
2023-04-27T13:36:25.441Z,92.00
2023-04-27T13:39:27.126Z,93.30
2023-04-27T13:42:29.690Z,92.80
2023-04-27T13:45:32.343Z,92.60
2023-04-27T13:48:34.002Z,93.00
2023-04-27T13:51:36.062Z,92.80
2023-04-27T13:54:37.976Z,92.10
2023-04-27T13:57:39.657Z,93.40
2023-04-27T14:00:41.470Z,93.60
2023-04-27T14:03:43.855Z,91.80
2023-04-27T14:06:46.303Z,91.50
2023-04-27T14:09:48.005Z,90.40
2023-04-27T14:12:49.779Z,92.30
2023-04-27T14:15:51.541Z,91.50
2023-04-27T14:18:53.464Z,92.70
2023-04-27T14:21:58.247Z,90.80
2023-04-27T14:25:00.425Z,91.20
2023-04-27T14:28:06.577Z,91.80
2023-04-27T14:31:08.488Z,92.20
2023-04-27T14:34:10.959Z,92.90
2023-04-27T14:37:12.630Z,93.80
2023-04-27T14:40:14.372Z,94.10
2023-04-27T14:43:17.875Z,92.50
2023-04-27T14:46:21.134Z,91.80
2023-04-27T14:49:23.252Z,91.30
2023-04-27T14:52:25.059Z,92.80
2023-04-27T14:55:27.186Z,91.60
2023-04-27T14:58:28.865Z,90.60
2023-04-27T15:01:31.957Z,91.10
2023-04-27T15:04:35.448Z,90.40
2023-04-27T15:07:37.208Z,91.50
2023-04-27T15:10:38.980Z,91.90
2023-04-27T15:13:40.863Z,91.20
2023-04-27T15:16:42.519Z,92.20
2023-04-27T15:19:44.135Z,92.50
2023-04-27T15:22:46.384Z,92.60
2023-04-27T15:25:49.183Z,93.60
2023-04-27T15:28:51.175Z,93.20
2023-04-27T15:31:53.322Z,91.50
2023-04-27T15:34:57.126Z,93.40
2023-04-27T15:37:59.008Z,93.00
2023-04-27T15:41:00.654Z,92.70
2023-04-27T15:44:02.330Z,92.90
2023-04-27T15:47:04.403Z,92.40
2023-04-27T15:50:06.762Z,92.80
2023-04-27T15:53:08.439Z,93.00
2023-04-27T15:56:10.070Z,93.40
2023-04-27T15:59:12.447Z,92.70
